sensor_id;sensor_type;location;lat;lon;timestamp;temperature;humidity
16578;DHT22;8401;52.528;13.340;2023-02-28T00:00:39;3.30;99.90
16578;DHT22;8401;52.528;13.340;2023-02-28T00:03:05;3.50;99.90
16578;DHT22;8401;52.528;13.340;2023-02-28T00:05:31;3.50;99.90
16578;DHT22;8401;52.528;13.340;2023-02-28T00:07:57;3.50;99.90
16578;DHT22;8401;52.528;13.340;2023-02-28T00:10:28;3.40;99.90
16578;DHT22;8401;52.528;13.340;2023-02-28T00:12:56;3.30;99.90
16578;DHT22;8401;52.528;13.340;2023-02-28T00:15:24;3.30;99.90
16578;DHT22;8401;52.528;13.340;2023-02-28T00:17:50;3.50;99.90
16578;DHT22;8401;52.528;13.340;2023-02-28T00:20:16;3.60;99.90
16578;DHT22;8401;52.528;13.340;2023-02-28T00:22:47;3.50;99.90
16578;DHT22;8401;52.528;13.340;2023-02-28T00:25:16;3.60;99.90
16578;DHT22;8401;52.528;13.340;2023-02-28T00:27:42;3.50;99.90
16578;DHT22;8401;52.528;13.340;2023-02-28T00:30:11;3.40;99.90
16578;DHT22;8401;52.528;13.340;2023-02-28T00:32:37;3.40;99.90
16578;DHT22;8401;52.528;13.340;2023-02-28T00:35:03;3.30;99.90
16578;DHT22;8401;52.528;13.340;2023-02-28T00:37:29;3.30;99.90
16578;DHT22;8401;52.528;13.340;2023-02-28T00:39:56;3.30;99.90
16578;DHT22;8401;52.528;13.340;2023-02-28T00:42:21;3.30;99.90
16578;DHT22;8401;52.528;13.340;2023-02-28T00:44:50;3.40;99.90
16578;DHT22;8401;52.528;13.340;2023-02-28T00:47:16;3.60;99.90
16578;DHT22;8401;52.528;13.340;2023-02-28T00:49:44;3.80;99.90
16578;DHT22;8401;52.528;13.340;2023-02-28T00:52:12;3.80;99.90
16578;DHT22;8401;52.528;13.340;2023-02-28T00:54:37;3.70;99.90
16578;DHT22;8401;52.528;13.340;2023-02-28T00:57:03;3.50;99.90
16578;DHT22;8401;52.528;13.340;2023-02-28T00:59:29;3.40;99.90
16578;DHT22;8401;52.528;13.340;2023-02-28T01:01:54;3.40;99.90
16578;DHT22;8401;52.528;13.340;2023-02-28T01:04:23;3.60;99.90
16578;DHT22;8401;52.528;13.340;2023-02-28T01:06:49;3.70;99.90
16578;DHT22;8401;52.528;13.340;2023-02-28T01:09:15;3.60;99.90
16578;DHT22;8401;52.528;13.340;2023-02-28T01:11:41;3.70;99.90
16578;DHT22;8401;52.528;13.340;2023-02-28T01:14:12;3.70;99.90
16578;DHT22;8401;52.528;13.340;2023-02-28T01:16:38;3.70;99.90
16578;DHT22;8401;52.528;13.340;2023-02-28T01:19:04;3.60;99.90
16578;DHT22;8401;52.528;13.340;2023-02-28T01:21:32;3.90;99.90
16578;DHT22;8401;52.528;13.340;2023-02-28T01:23:58;3.60;99.90
16578;DHT22;8401;52.528;13.340;2023-02-28T01:26:24;3.50;99.90
16578;DHT22;8401;52.528;13.340;2023-02-28T01:28:53;3.40;99.90
16578;DHT22;8401;52.528;13.340;2023-02-28T01:31:21;3.40;99.90
16578;DHT22;8401;52.528;13.340;2023-02-28T01:33:48;3.40;99.90
16578;DHT22;8401;52.528;13.340;2023-02-28T01:36:19;3.40;99.90
16578;DHT22;8401;52.528;13.340;2023-02-28T01:38:46;3.30;99.90
16578;DHT22;8401;52.528;13.340;2023-02-28T01:41:21;3.30;99.90
16578;DHT22;8401;52.528;13.340;2023-02-28T01:46:14;3.20;99.90
16578;DHT22;8401;52.528;13.340;2023-02-28T01:51:30;3.20;99.90
16578;DHT22;8401;52.528;13.340;2023-02-28T01:54:02;3.20;99.90
16578;DHT22;8401;52.528;13.340;2023-02-28T01:56:32;3.30;99.90
16578;DHT22;8401;52.528;13.340;2023-02-28T01:58:58;3.20;99.90
16578;DHT22;8401;52.528;13.340;2023-02-28T02:01:26;3.20;99.90
16578;DHT22;8401;52.528;13.340;2023-02-28T02:03:57;3.20;99.90
16578;DHT22;8401;52.528;13.340;2023-02-28T02:06:50;3.20;99.90
16578;DHT22;8401;52.528;13.340;2023-02-28T02:09:16;3.10;99.90
16578;DHT22;8401;52.528;13.340;2023-02-28T02:11:43;3.10;99.90
16578;DHT22;8401;52.528;13.340;2023-02-28T02:14:31;3.10;99.90
16578;DHT22;8401;52.528;13.340;2023-02-28T02:28:30;2.90;99.90
16578;DHT22;8401;52.528;13.340;2023-02-28T02:36:17;2.80;99.90
16578;DHT22;8401;52.528;13.340;2023-02-28T02:38:55;2.80;99.90
16578;DHT22;8401;52.528;13.340;2023-02-28T02:41:32;2.70;99.90
16578;DHT22;8401;52.528;13.340;2023-02-28T02:44:10;2.70;99.90
16578;DHT22;8401;52.528;13.340;2023-02-28T02:46:41;2.70;99.90
16578;DHT22;8401;52.528;13.340;2023-02-28T02:49:23;2.60;99.90
16578;DHT22;8401;52.528;13.340;2023-02-28T02:51:49;2.60;99.90
16578;DHT22;8401;52.528;13.340;2023-02-28T02:54:23;2.60;99.90
16578;DHT22;8401;52.528;13.340;2023-02-28T02:56:56;2.60;99.90
16578;DHT22;8401;52.528;13.340;2023-02-28T02:59:24;2.60;99.90
16578;DHT22;8401;52.528;13.340;2023-02-28T03:01:53;2.50;99.90
16578;DHT22;8401;52.528;13.340;2023-02-28T03:04:23;2.50;99.90
16578;DHT22;8401;52.528;13.340;2023-02-28T03:06:51;2.50;99.90
16578;DHT22;8401;52.528;13.340;2023-02-28T03:09:21;2.40;99.90
16578;DHT22;8401;52.528;13.340;2023-02-28T03:11:47;2.40;99.90
16578;DHT22;8401;52.528;13.340;2023-02-28T03:14:51;2.40;99.90
16578;DHT22;8401;52.528;13.340;2023-02-28T03:28:26;2.30;99.90
16578;DHT22;8401;52.528;13.340;2023-02-28T03:30:59;2.20;99.90
16578;DHT22;8401;52.528;13.340;2023-02-28T03:33:33;2.10;99.90
16578;DHT22;8401;52.528;13.340;2023-02-28T03:36:07;2.20;99.90
16578;DHT22;8401;52.528;13.340;2023-02-28T03:38:41;2.10;99.90
16578;DHT22;8401;52.528;13.340;2023-02-28T03:41:17;2.10;99.90
16578;DHT22;8401;52.528;13.340;2023-02-28T03:43:58;2.10;99.90
16578;DHT22;8401;52.528;13.340;2023-02-28T03:46:27;2.10;99.90
16578;DHT22;8401;52.528;13.340;2023-02-28T03:49:00;2.00;99.90
16578;DHT22;8401;52.528;13.340;2023-02-28T03:51:27;2.00;99.90
16578;DHT22;8401;52.528;13.340;2023-02-28T03:53:58;2.00;99.90
16578;DHT22;8401;52.528;13.340;2023-02-28T03:56:33;1.90;99.90
16578;DHT22;8401;52.528;13.340;2023-02-28T03:59:26;2.00;99.90
16578;DHT22;8401;52.528;13.340;2023-02-28T04:01:53;1.90;99.90
16578;DHT22;8401;52.528;13.340;2023-02-28T04:04:20;1.90;99.90
16578;DHT22;8401;52.528;13.340;2023-02-28T04:06:50;1.90;99.90
16578;DHT22;8401;52.528;13.340;2023-02-28T04:09:16;1.80;99.90
16578;DHT22;8401;52.528;13.340;2023-02-28T04:11:45;1.80;99.90
16578;DHT22;8401;52.528;13.340;2023-02-28T04:14:12;1.80;99.90
16578;DHT22;8401;52.528;13.340;2023-02-28T04:16:41;1.80;99.90
16578;DHT22;8401;52.528;13.340;2023-02-28T04:19:08;1.80;99.90
16578;DHT22;8401;52.528;13.340;2023-02-28T04:21:36;1.80;99.90
16578;DHT22;8401;52.528;13.340;2023-02-28T04:24:02;1.80;99.90
16578;DHT22;8401;52.528;13.340;2023-02-28T04:26:33;1.80;99.90
16578;DHT22;8401;52.528;13.340;2023-02-28T04:29:00;1.80;99.90
16578;DHT22;8401;52.528;13.340;2023-02-28T04:31:26;1.70;99.90
16578;DHT22;8401;52.528;13.340;2023-02-28T04:33:52;1.60;99.90
16578;DHT22;8401;52.528;13.340;2023-02-28T04:36:18;1.60;99.90
16578;DHT22;8401;52.528;13.340;2023-02-28T04:38:44;1.70;99.90
16578;DHT22;8401;52.528;13.340;2023-02-28T04:41:13;1.60;99.90
16578;DHT22;8401;52.528;13.340;2023-02-28T04:43:39;1.70;99.90
16578;DHT22;8401;52.528;13.340;2023-02-28T04:46:05;1.60;99.90
16578;DHT22;8401;52.528;13.340;2023-02-28T04:48:33;1.60;99.90
16578;DHT22;8401;52.528;13.340;2023-02-28T04:51:04;1.60;99.90
16578;DHT22;8401;52.528;13.340;2023-02-28T04:53:30;1.60;99.90
16578;DHT22;8401;52.528;13.340;2023-02-28T04:55:57;1.60;99.90
16578;DHT22;8401;52.528;13.340;2023-02-28T04:58:23;1.60;99.90
16578;DHT22;8401;52.528;13.340;2023-02-28T05:00:49;1.60;99.90
16578;DHT22;8401;52.528;13.340;2023-02-28T05:03:15;1.50;99.90
16578;DHT22;8401;52.528;13.340;2023-02-28T05:05:41;1.50;99.90
16578;DHT22;8401;52.528;13.340;2023-02-28T05:08:06;1.50;99.90
16578;DHT22;8401;52.528;13.340;2023-02-28T05:10:32;1.50;99.90
16578;DHT22;8401;52.528;13.340;2023-02-28T05:12:58;1.40;99.90
16578;DHT22;8401;52.528;13.340;2023-02-28T05:15:24;1.50;99.90
16578;DHT22;8401;52.528;13.340;2023-02-28T05:17:50;1.50;99.90
16578;DHT22;8401;52.528;13.340;2023-02-28T05:20:16;1.40;99.90
16578;DHT22;8401;52.528;13.340;2023-02-28T05:22:42;1.40;99.90
16578;DHT22;8401;52.528;13.340;2023-02-28T05:25:11;1.40;99.90
16578;DHT22;8401;52.528;13.340;2023-02-28T05:27:38;1.40;99.90
16578;DHT22;8401;52.528;13.340;2023-02-28T05:30:05;1.40;99.90
16578;DHT22;8401;52.528;13.340;2023-02-28T05:32:31;1.40;99.90
16578;DHT22;8401;52.528;13.340;2023-02-28T05:34:57;1.50;99.90
16578;DHT22;8401;52.528;13.340;2023-02-28T05:37:22;1.50;99.90
16578;DHT22;8401;52.528;13.340;2023-02-28T05:39:48;1.40;99.90
16578;DHT22;8401;52.528;13.340;2023-02-28T05:42:13;1.40;99.90
16578;DHT22;8401;52.528;13.340;2023-02-28T05:44:39;1.40;99.90
16578;DHT22;8401;52.528;13.340;2023-02-28T05:47:05;1.40;99.90
16578;DHT22;8401;52.528;13.340;2023-02-28T05:49:30;1.40;99.90
16578;DHT22;8401;52.528;13.340;2023-02-28T05:51:56;1.40;99.90
16578;DHT22;8401;52.528;13.340;2023-02-28T05:54:21;1.40;99.90
16578;DHT22;8401;52.528;13.340;2023-02-28T05:56:47;1.40;99.90
16578;DHT22;8401;52.528;13.340;2023-02-28T05:59:13;1.40;99.90
16578;DHT22;8401;52.528;13.340;2023-02-28T06:01:44;1.40;99.90
16578;DHT22;8401;52.528;13.340;2023-02-28T06:04:14;1.30;99.90
16578;DHT22;8401;52.528;13.340;2023-02-28T06:06:43;1.30;99.90
16578;DHT22;8401;52.528;13.340;2023-02-28T06:09:10;1.40;99.90
16578;DHT22;8401;52.528;13.340;2023-02-28T06:11:36;1.40;99.90
16578;DHT22;8401;52.528;13.340;2023-02-28T06:14:02;1.30;99.90
16578;DHT22;8401;52.528;13.340;2023-02-28T06:16:28;1.30;99.90
16578;DHT22;8401;52.528;13.340;2023-02-28T06:18:56;1.30;99.90
16578;DHT22;8401;52.528;13.340;2023-02-28T06:21:22;1.40;99.90
16578;DHT22;8401;52.528;13.340;2023-02-28T06:23:48;1.30;99.90
16578;DHT22;8401;52.528;13.340;2023-02-28T06:26:14;1.30;99.90
16578;DHT22;8401;52.528;13.340;2023-02-28T06:28:40;1.30;99.90
16578;DHT22;8401;52.528;13.340;2023-02-28T06:31:07;1.30;99.90
16578;DHT22;8401;52.528;13.340;2023-02-28T06:33:34;1.40;99.90
16578;DHT22;8401;52.528;13.340;2023-02-28T06:35:59;1.40;99.90
16578;DHT22;8401;52.528;13.340;2023-02-28T06:38:25;1.40;99.90
16578;DHT22;8401;52.528;13.340;2023-02-28T06:40:58;1.40;99.90
16578;DHT22;8401;52.528;13.340;2023-02-28T06:43:29;1.40;99.90
16578;DHT22;8401;52.528;13.340;2023-02-28T06:45:57;1.40;99.90
16578;DHT22;8401;52.528;13.340;2023-02-28T06:48:23;1.50;99.90
16578;DHT22;8401;52.528;13.340;2023-02-28T06:50:49;1.50;99.90
16578;DHT22;8401;52.528;13.340;2023-02-28T06:53:15;1.50;99.90
16578;DHT22;8401;52.528;13.340;2023-02-28T06:55:41;1.50;99.90
16578;DHT22;8401;52.528;13.340;2023-02-28T06:58:07;1.50;99.90
16578;DHT22;8401;52.528;13.340;2023-02-28T07:00:43;1.60;99.90
16578;DHT22;8401;52.528;13.340;2023-02-28T07:03:09;1.60;99.90
16578;DHT22;8401;52.528;13.340;2023-02-28T07:05:39;1.60;99.90
16578;DHT22;8401;52.528;13.340;2023-02-28T07:08:05;1.70;99.90
16578;DHT22;8401;52.528;13.340;2023-02-28T07:10:33;1.70;99.90
16578;DHT22;8401;52.528;13.340;2023-02-28T07:12:59;1.70;99.90
16578;DHT22;8401;52.528;13.340;2023-02-28T07:15:25;1.70;99.90
16578;DHT22;8401;52.528;13.340;2023-02-28T07:17:51;1.80;99.90
16578;DHT22;8401;52.528;13.340;2023-02-28T07:20:16;1.90;99.90
16578;DHT22;8401;52.528;13.340;2023-02-28T07:22:42;1.90;99.90
16578;DHT22;8401;52.528;13.340;2023-02-28T07:25:08;1.80;99.90
16578;DHT22;8401;52.528;13.340;2023-02-28T07:27:34;1.90;99.90
16578;DHT22;8401;52.528;13.340;2023-02-28T07:30:00;2.00;99.90
16578;DHT22;8401;52.528;13.340;2023-02-28T07:32:29;2.00;99.90
16578;DHT22;8401;52.528;13.340;2023-02-28T07:34:54;2.10;99.90
16578;DHT22;8401;52.528;13.340;2023-02-28T07:37:20;2.10;99.90
16578;DHT22;8401;52.528;13.340;2023-02-28T07:39:46;2.20;99.90
16578;DHT22;8401;52.528;13.340;2023-02-28T07:42:11;2.30;99.90
16578;DHT22;8401;52.528;13.340;2023-02-28T07:44:40;2.30;99.90
16578;DHT22;8401;52.528;13.340;2023-02-28T07:47:09;2.40;99.90
16578;DHT22;8401;52.528;13.340;2023-02-28T07:49:36;2.40;99.90
16578;DHT22;8401;52.528;13.340;2023-02-28T07:52:06;2.50;99.90
16578;DHT22;8401;52.528;13.340;2023-02-28T07:54:32;2.50;99.90
16578;DHT22;8401;52.528;13.340;2023-02-28T07:56:58;2.70;99.90
16578;DHT22;8401;52.528;13.340;2023-02-28T07:59:24;2.70;99.90
16578;DHT22;8401;52.528;13.340;2023-02-28T08:01:50;2.70;99.90
16578;DHT22;8401;52.528;13.340;2023-02-28T08:04:18;2.80;99.90
16578;DHT22;8401;52.528;13.340;2023-02-28T08:06:44;2.90;99.90
16578;DHT22;8401;52.528;13.340;2023-02-28T08:09:10;3.00;99.90
16578;DHT22;8401;52.528;13.340;2023-02-28T08:11:37;3.10;99.90
16578;DHT22;8401;52.528;13.340;2023-02-28T08:14:02;3.10;99.90
16578;DHT22;8401;52.528;13.340;2023-02-28T08:16:28;3.40;99.90
16578;DHT22;8401;52.528;13.340;2023-02-28T08:18:54;3.40;99.90
16578;DHT22;8401;52.528;13.340;2023-02-28T08:21:20;3.70;99.90
16578;DHT22;8401;52.528;13.340;2023-02-28T08:23:47;3.80;99.90
16578;DHT22;8401;52.528;13.340;2023-02-28T08:26:14;3.70;99.90
16578;DHT22;8401;52.528;13.340;2023-02-28T08:28:39;3.80;99.90
16578;DHT22;8401;52.528;13.340;2023-02-28T08:31:15;4.00;99.90
16578;DHT22;8401;52.528;13.340;2023-02-28T08:33:42;4.60;99.90
16578;DHT22;8401;52.528;13.340;2023-02-28T08:36:08;4.90;99.90
16578;DHT22;8401;52.528;13.340;2023-02-28T08:38:35;4.90;99.90
16578;DHT22;8401;52.528;13.340;2023-02-28T08:41:03;5.10;99.90
16578;DHT22;8401;52.528;13.340;2023-02-28T08:43:33;5.10;99.90
16578;DHT22;8401;52.528;13.340;2023-02-28T08:45:59;5.10;99.90
16578;DHT22;8401;52.528;13.340;2023-02-28T08:48:26;4.80;99.90
16578;DHT22;8401;52.528;13.340;2023-02-28T08:50:56;5.20;99.90
16578;DHT22;8401;52.528;13.340;2023-02-28T08:53:22;5.50;99.90
16578;DHT22;8401;52.528;13.340;2023-02-28T08:56:02;5.50;99.90
16578;DHT22;8401;52.528;13.340;2023-02-28T08:58:28;5.50;99.90
16578;DHT22;8401;52.528;13.340;2023-02-28T09:00:54;5.80;99.90
16578;DHT22;8401;52.528;13.340;2023-02-28T09:03:21;6.00;99.90
16578;DHT22;8401;52.528;13.340;2023-02-28T09:05:55;5.90;99.90
16578;DHT22;8401;52.528;13.340;2023-02-28T09:08:22;5.90;99.90
16578;DHT22;8401;52.528;13.340;2023-02-28T09:10:48;6.20;99.90
16578;DHT22;8401;52.528;13.340;2023-02-28T09:13:13;6.60;99.90
16578;DHT22;8401;52.528;13.340;2023-02-28T09:15:39;7.00;99.90
16578;DHT22;8401;52.528;13.340;2023-02-28T09:18:05;7.00;99.90
16578;DHT22;8401;52.528;13.340;2023-02-28T09:20:31;7.20;99.90
16578;DHT22;8401;52.528;13.340;2023-02-28T09:22:56;6.60;99.90
16578;DHT22;8401;52.528;13.340;2023-02-28T09:25:26;6.50;99.90
16578;DHT22;8401;52.528;13.340;2023-02-28T09:27:52;7.40;99.90
16578;DHT22;8401;52.528;13.340;2023-02-28T09:30:18;7.30;99.90
16578;DHT22;8401;52.528;13.340;2023-02-28T09:32:43;8.30;99.90
16578;DHT22;8401;52.528;13.340;2023-02-28T09:35:17;10.40;99.90
16578;DHT22;8401;52.528;13.340;2023-02-28T09:37:43;11.70;99.90
16578;DHT22;8401;52.528;13.340;2023-02-28T09:40:10;13.40;99.90
16578;DHT22;8401;52.528;13.340;2023-02-28T09:42:36;14.70;99.90
16578;DHT22;8401;52.528;13.340;2023-02-28T09:45:07;15.90;99.90
16578;DHT22;8401;52.528;13.340;2023-02-28T09:47:42;17.40;99.90
16578;DHT22;8401;52.528;13.340;2023-02-28T09:52:41;14.70;99.90
16578;DHT22;8401;52.528;13.340;2023-02-28T09:57:45;16.90;99.90
16578;DHT22;8401;52.528;13.340;2023-02-28T10:00:22;18.40;99.70
16578;DHT22;8401;52.528;13.340;2023-02-28T10:03:04;17.10;98.20
16578;DHT22;8401;52.528;13.340;2023-02-28T10:05:52;15.50;98.30
16578;DHT22;8401;52.528;13.340;2023-02-28T10:08:27;16.00;96.70
16578;DHT22;8401;52.528;13.340;2023-02-28T10:11:01;14.90;96.40
16578;DHT22;8401;52.528;13.340;2023-02-28T10:13:59;16.80;96.50
16578;DHT22;8401;52.528;13.340;2023-02-28T10:16:44;17.50;96.10
16578;DHT22;8401;52.528;13.340;2023-02-28T10:19:35;16.40;94.80
16578;DHT22;8401;52.528;13.340;2023-02-28T10:22:20;14.60;95.00
16578;DHT22;8401;52.528;13.340;2023-02-28T10:24:55;15.30;94.70
16578;DHT22;8401;52.528;13.340;2023-02-28T10:27:30;15.00;94.40
16578;DHT22;8401;52.528;13.340;2023-02-28T10:29:58;16.10;94.80
16578;DHT22;8401;52.528;13.340;2023-02-28T10:32:32;15.80;94.30
16578;DHT22;8401;52.528;13.340;2023-02-28T10:37:44;19.90;93.80
16578;DHT22;8401;52.528;13.340;2023-02-28T10:43:02;17.10;91.50
16578;DHT22;8401;52.528;13.340;2023-02-28T10:45:33;19.60;92.30
16578;DHT22;8401;52.528;13.340;2023-02-28T10:56:03;15.00;91.20
16578;DHT22;8401;52.528;13.340;2023-02-28T11:01:08;15.00;90.80
16578;DHT22;8401;52.528;13.340;2023-02-28T11:03:37;15.60;91.00
16578;DHT22;8401;52.528;13.340;2023-02-28T11:06:08;15.30;90.50
16578;DHT22;8401;52.528;13.340;2023-02-28T11:08:47;16.30;90.70
16578;DHT22;8401;52.528;13.340;2023-02-28T11:11:13;17.80;91.10
16578;DHT22;8401;52.528;13.340;2023-02-28T11:13:39;16.40;90.00
16578;DHT22;8401;52.528;13.340;2023-02-28T11:16:07;18.00;90.70
16578;DHT22;8401;52.528;13.340;2023-02-28T11:18:42;19.90;89.90
16578;DHT22;8401;52.528;13.340;2023-02-28T11:21:09;17.80;87.80
16578;DHT22;8401;52.528;13.340;2023-02-28T11:23:40;18.40;87.80
16578;DHT22;8401;52.528;13.340;2023-02-28T11:26:07;18.70;88.80
16578;DHT22;8401;52.528;13.340;2023-02-28T11:28:39;18.90;86.90
16578;DHT22;8401;52.528;13.340;2023-02-28T11:33:44;22.40;85.90
16578;DHT22;8401;52.528;13.340;2023-02-28T11:36:31;19.60;81.40
16578;DHT22;8401;52.528;13.340;2023-02-28T11:38:59;20.80;84.80
16578;DHT22;8401;52.528;13.340;2023-02-28T11:41:34;20.00;80.70
16578;DHT22;8401;52.528;13.340;2023-02-28T11:47:03;18.00;80.00
16578;DHT22;8401;52.528;13.340;2023-02-28T11:52:52;17.60;80.60
16578;DHT22;8401;52.528;13.340;2023-02-28T11:55:28;16.50;80.80
16578;DHT22;8401;52.528;13.340;2023-02-28T11:58:10;19.80;80.80
16578;DHT22;8401;52.528;13.340;2023-02-28T12:03:38;12.90;81.60
16578;DHT22;8401;52.528;13.340;2023-02-28T12:06:25;12.80;82.50
16578;DHT22;8401;52.528;13.340;2023-02-28T12:17:43;10.80;86.80
16578;DHT22;8401;52.528;13.340;2023-02-28T12:26:09;10.90;87.80
16578;DHT22;8401;52.528;13.340;2023-02-28T12:28:51;11.00;87.80
16578;DHT22;8401;52.528;13.340;2023-02-28T12:31:24;11.40;87.30
16578;DHT22;8401;52.528;13.340;2023-02-28T12:34:01;11.00;87.80
16578;DHT22;8401;52.528;13.340;2023-02-28T12:36:28;10.00;89.10
16578;DHT22;8401;52.528;13.340;2023-02-28T12:39:08;10.60;89.60
16578;DHT22;8401;52.528;13.340;2023-02-28T12:41:44;9.90;89.70
16578;DHT22;8401;52.528;13.340;2023-02-28T12:44:52;10.30;90.00
16578;DHT22;8401;52.528;13.340;2023-02-28T12:47:18;10.40;89.60
16578;DHT22;8401;52.528;13.340;2023-02-28T12:49:57;9.50;90.30
16578;DHT22;8401;52.528;13.340;2023-02-28T12:52:56;9.30;90.90
16578;DHT22;8401;52.528;13.340;2023-02-28T12:55:47;9.50;91.50
16578;DHT22;8401;52.528;13.340;2023-02-28T12:58:25;8.70;91.70
16578;DHT22;8401;52.528;13.340;2023-02-28T13:09:55;9.40;91.70
16578;DHT22;8401;52.528;13.340;2023-02-28T13:12:22;9.90;91.10
16578;DHT22;8401;52.528;13.340;2023-02-28T13:14:49;9.80;91.10
16578;DHT22;8401;52.528;13.340;2023-02-28T13:17:20;9.80;91.20
16578;DHT22;8401;52.528;13.340;2023-02-28T13:22:38;9.20;91.30
16578;DHT22;8401;52.528;13.340;2023-02-28T13:27:55;9.80;91.00
16578;DHT22;8401;52.528;13.340;2023-02-28T13:36:27;8.60;91.90
16578;DHT22;8401;52.528;13.340;2023-02-28T13:38:56;8.90;92.10
16578;DHT22;8401;52.528;13.340;2023-02-28T13:49:26;10.00;92.00
16578;DHT22;8401;52.528;13.340;2023-02-28T14:05:42;8.30;93.30
16578;DHT22;8401;52.528;13.340;2023-02-28T14:08:16;9.00;92.60
16578;DHT22;8401;52.528;13.340;2023-02-28T14:10:46;8.50;92.50
16578;DHT22;8401;52.528;13.340;2023-02-28T14:16:03;8.00;93.90
16578;DHT22;8401;52.528;13.340;2023-02-28T14:18:36;8.00;94.20
16578;DHT22;8401;52.528;13.340;2023-02-28T14:32:30;8.70;94.00
16578;DHT22;8401;52.528;13.340;2023-02-28T14:35:20;8.70;94.20
16578;DHT22;8401;52.528;13.340;2023-02-28T14:37:48;8.90;94.00
16578;DHT22;8401;52.528;13.340;2023-02-28T14:40:32;9.30;93.80
16578;DHT22;8401;52.528;13.340;2023-02-28T14:43:20;9.10;93.80
16578;DHT22;8401;52.528;13.340;2023-02-28T14:45:50;8.90;94.20
16578;DHT22;8401;52.528;13.340;2023-02-28T14:48:17;9.00;93.90
16578;DHT22;8401;52.528;13.340;2023-02-28T14:50:49;8.80;94.00
16578;DHT22;8401;52.528;13.340;2023-02-28T14:53:18;8.30;94.50
16578;DHT22;8401;52.528;13.340;2023-02-28T14:55:47;8.70;94.30
16578;DHT22;8401;52.528;13.340;2023-02-28T14:58:28;8.60;94.60
16578;DHT22;8401;52.528;13.340;2023-02-28T15:00:58;8.60;94.90
16578;DHT22;8401;52.528;13.340;2023-02-28T15:05:58;8.40;94.80
16578;DHT22;8401;52.528;13.340;2023-02-28T15:08:25;8.20;95.20
16578;DHT22;8401;52.528;13.340;2023-02-28T15:10:57;8.40;95.00
16578;DHT22;8401;52.528;13.340;2023-02-28T15:13:31;8.10;95.30
16578;DHT22;8401;52.528;13.340;2023-02-28T15:16:03;8.10;95.20
16578;DHT22;8401;52.528;13.340;2023-02-28T15:18:48;8.40;94.80
16578;DHT22;8401;52.528;13.340;2023-02-28T15:21:24;8.30;95.00
16578;DHT22;8401;52.528;13.340;2023-02-28T15:24:03;8.40;95.20
16578;DHT22;8401;52.528;13.340;2023-02-28T15:26:33;8.00;95.60
16578;DHT22;8401;52.528;13.340;2023-02-28T15:29:03;7.80;95.90
16578;DHT22;8401;52.528;13.340;2023-02-28T15:31:33;8.10;96.20
16578;DHT22;8401;52.528;13.340;2023-02-28T15:34:05;8.40;95.70
16578;DHT22;8401;52.528;13.340;2023-02-28T15:36:33;7.90;96.10
16578;DHT22;8401;52.528;13.340;2023-02-28T15:39:01;7.90;96.50
16578;DHT22;8401;52.528;13.340;2023-02-28T15:41:36;7.80;96.50
16578;DHT22;8401;52.528;13.340;2023-02-28T15:49:28;8.00;98.00
16578;DHT22;8401;52.528;13.340;2023-02-28T15:51:58;7.70;96.80
16578;DHT22;8401;52.528;13.340;2023-02-28T15:54:29;7.60;97.00
16578;DHT22;8401;52.528;13.340;2023-02-28T15:56:56;7.60;96.90
16578;DHT22;8401;52.528;13.340;2023-02-28T15:59:26;7.90;96.70
16578;DHT22;8401;52.528;13.340;2023-02-28T16:04:29;7.60;97.50
16578;DHT22;8401;52.528;13.340;2023-02-28T16:07:01;7.50;97.40
16578;DHT22;8401;52.528;13.340;2023-02-28T16:09:27;7.20;98.70
16578;DHT22;8401;52.528;13.340;2023-02-28T16:11:58;6.90;98.80
16578;DHT22;8401;52.528;13.340;2023-02-28T16:14:28;6.90;98.60
16578;DHT22;8401;52.528;13.340;2023-02-28T16:16:57;6.80;99.90
16578;DHT22;8401;52.528;13.340;2023-02-28T16:19:27;6.60;99.90
16578;DHT22;8401;52.528;13.340;2023-02-28T16:21:52;6.50;99.90
16578;DHT22;8401;52.528;13.340;2023-02-28T16:24:18;6.50;99.90
16578;DHT22;8401;52.528;13.340;2023-02-28T16:26:47;6.50;99.90
16578;DHT22;8401;52.528;13.340;2023-02-28T16:31:49;6.50;99.90
16578;DHT22;8401;52.528;13.340;2023-02-28T16:34:15;6.70;99.90
16578;DHT22;8401;52.528;13.340;2023-02-28T16:36:41;7.00;99.90
16578;DHT22;8401;52.528;13.340;2023-02-28T16:39:07;6.80;99.90
16578;DHT22;8401;52.528;13.340;2023-02-28T16:41:33;6.80;99.90
16578;DHT22;8401;52.528;13.340;2023-02-28T16:43:59;6.70;99.90
16578;DHT22;8401;52.528;13.340;2023-02-28T16:46:34;6.40;99.90
16578;DHT22;8401;52.528;13.340;2023-02-28T16:49:00;6.20;99.90
16578;DHT22;8401;52.528;13.340;2023-02-28T16:51:25;6.10;99.90
16578;DHT22;8401;52.528;13.340;2023-02-28T16:53:51;6.00;99.90
16578;DHT22;8401;52.528;13.340;2023-02-28T16:56:20;5.90;99.90
16578;DHT22;8401;52.528;13.340;2023-02-28T16:58:46;5.90;99.90
16578;DHT22;8401;52.528;13.340;2023-02-28T17:01:13;5.80;99.90
16578;DHT22;8401;52.528;13.340;2023-02-28T17:03:39;5.80;99.90
16578;DHT22;8401;52.528;13.340;2023-02-28T17:06:08;5.80;99.90
16578;DHT22;8401;52.528;13.340;2023-02-28T17:08:41;5.80;99.90
16578;DHT22;8401;52.528;13.340;2023-02-28T17:11:08;5.70;99.90
16578;DHT22;8401;52.528;13.340;2023-02-28T17:13:34;5.70;99.90
16578;DHT22;8401;52.528;13.340;2023-02-28T17:16:00;5.70;99.90
16578;DHT22;8401;52.528;13.340;2023-02-28T17:18:26;5.80;99.90
16578;DHT22;8401;52.528;13.340;2023-02-28T17:20:54;5.80;99.90
16578;DHT22;8401;52.528;13.340;2023-02-28T17:23:19;5.90;99.90
16578;DHT22;8401;52.528;13.340;2023-02-28T17:25:45;5.80;99.90
16578;DHT22;8401;52.528;13.340;2023-02-28T17:28:19;5.70;99.90
16578;DHT22;8401;52.528;13.340;2023-02-28T17:30:46;5.60;99.90
16578;DHT22;8401;52.528;13.340;2023-02-28T17:33:12;5.50;99.90
16578;DHT22;8401;52.528;13.340;2023-02-28T17:35:38;5.50;99.90
16578;DHT22;8401;52.528;13.340;2023-02-28T17:38:04;5.40;99.90
16578;DHT22;8401;52.528;13.340;2023-02-28T17:40:29;5.30;99.90
16578;DHT22;8401;52.528;13.340;2023-02-28T17:42:55;5.40;99.90
16578;DHT22;8401;52.528;13.340;2023-02-28T17:45:22;5.40;99.90
16578;DHT22;8401;52.528;13.340;2023-02-28T17:47:49;5.40;99.90
16578;DHT22;8401;52.528;13.340;2023-02-28T17:50:20;5.40;99.90
16578;DHT22;8401;52.528;13.340;2023-02-28T17:52:46;5.30;99.90
16578;DHT22;8401;52.528;13.340;2023-02-28T17:55:13;5.20;99.90
16578;DHT22;8401;52.528;13.340;2023-02-28T17:57:39;5.20;99.90
16578;DHT22;8401;52.528;13.340;2023-02-28T18:00:07;5.20;99.90
16578;DHT22;8401;52.528;13.340;2023-02-28T18:02:33;5.10;99.90
16578;DHT22;8401;52.528;13.340;2023-02-28T18:04:59;5.10;99.90
16578;DHT22;8401;52.528;13.340;2023-02-28T18:07:25;5.10;99.90
16578;DHT22;8401;52.528;13.340;2023-02-28T18:09:50;5.00;99.90
16578;DHT22;8401;52.528;13.340;2023-02-28T18:12:16;5.00;99.90
16578;DHT22;8401;52.528;13.340;2023-02-28T18:14:42;5.00;99.90
16578;DHT22;8401;52.528;13.340;2023-02-28T18:17:10;4.90;99.90
16578;DHT22;8401;52.528;13.340;2023-02-28T18:19:37;4.90;99.90
16578;DHT22;8401;52.528;13.340;2023-02-28T18:22:03;4.90;99.90
16578;DHT22;8401;52.528;13.340;2023-02-28T18:24:31;4.90;99.90
16578;DHT22;8401;52.528;13.340;2023-02-28T18:26:57;4.90;99.90
16578;DHT22;8401;52.528;13.340;2023-02-28T18:29:25;4.90;99.90